Flight Track Log - Related Links

Times and Time Zones

All times are in EDT time to prevent confusion due to time zone crossing. See the DAL3995 flight status page for this flight to view local times or setup timezone preferences in your user account.

Time Position Orientation Groundspeed Altitude Reporting Facility
EDT Latitude Longitude Course Direction KTS MPH feet Rate Location/Type
Tue 08:07:20 PM 42.2011 -83.3778 275° West 167 192 1,300  Level Cleveland Center
Tue 08:08:03 PM 42.2042 -83.4256 275° West 214 246 2,500 1,473 Climbing Cleveland Center
Tue 08:09:10 PM 42.2142 -83.5242 278° West 259 298 4,000 1,279 Climbing Cleveland Center
Tue 08:10:05 PM 42.2222 -83.6086 277° West 272 313 5,100 1,759 Climbing Cleveland Center
Tue 08:11:06 PM 42.2278 -83.7128 274° West 265 305 7,400 2,361 Climbing Cleveland Center
Tue 08:12:07 PM 42.2356 -83.8114 276° West 272 313 9,900 632 Climbing Cleveland Center
Tue 08:14:00 PM 42.2420 -83.9596 273° West  Level FlightAware Approximate
Tue 08:15:13 PM 42.2633 -84.2025 273° West 358 412 10,000  Level Chicago Center
Tue 08:16:15 PM 42.2622 -84.3347 269° West 355 409 10,000  Level Chicago Center
Tue 08:17:17 PM 42.2594 -84.4672 268° West 354 407 10,000  Level Chicago Center
Tue 08:18:19 PM 42.2575 -84.5986 269° West 352 405 10,000  Level Chicago Center
Tue 08:19:21 PM 42.2606 -84.7569 272° West 353 406 10,000  Level Chicago Center
Tue 08:20:23 PM 42.2783 -84.8850 281° West 350 403 10,000 -194 Level Chicago Center
Tue 08:21:25 PM 42.2906 -84.9917 279° West 295 339 9,600 -1,161 Descending Chicago Center
Tue 08:22:27 PM 42.3042 -85.0861 281° West 261 300 7,600 -1,935 Descending Chicago Center
Tue 08:23:29 PM 42.3178 -85.1819 281° West 260 299 5,600 -1,694 Descending Chicago Center
Tue 08:24:31 PM 42.3303 -85.2786 280° West 262 302 4,100 -871 Descending Chicago Center
Tue 08:25:33 PM 42.3478 -85.3906 282° West 257 296 3,800 -768 Descending Chicago Center
Tue 08:26:36 PM 42.3594 -85.4772 280° West 243 280 2,500 -576 Descending Chicago Center
Tue 08:27:38 PM 42.3347 -85.5386 241° Southwest 201 231 2,600 -97 Climbing Chicago Center
Tue 08:28:40 PM 42.2939 -85.5653 206° Southwest 191 220 2,300 -677 Descending Chicago Center
Tue 08:29:42 PM 42.2519 -85.5544 169° South 151 174 1,200 -1,065 Descending Chicago Center

Login

Don't have an account? Register now (free) for customized features, flight alerts, and more!